Bookmark and Share
Track history (hours):
 

Ever Unicorn

Last reported at 2014-Apr-17 00:00 UTC. Time now 2014-Apr-19 17:09 UTC.
Position N 44°36' E 153°48'.

Length 285 m; draft 12.7 m.

Type: Ship (hazmat cat D). MMSI: 564995000.

Wind from 290 at 6 knots

Waves 1.5 meters (5 feet), 8 second period

Barometer 1005.0 mb
Air temperature 6.0 ° C
Visibility: greater than 5.4 NM

NotesDate/timePositionNaut miles runAvg speedWind from/ knotsBaromVisibWave heightAir tempDewpointWater temp
2014-Apr-17 00:00N 44°36' E 153°48'   290 / 61005.0 5.4 1.5 6.0
2014-Apr-13 09:23N 30°30' E 122°33'1415.2
2014-Apr-13 08:30N 30°33' E 122°18'1313.4
2014-Apr-13 07:33N 30°37' E 122°04'1 0.0
2014-Apr-12 15:33N 30°37' E 122°03'9 9.0
2014-Apr-12 14:33N 30°34' E 122°13'9 8.6
2014-Apr-12 13:30N 30°33' E 122°23'8 2.1
2014-Apr-12 09:34N 30°29' E 122°32'36 8.6
2014-Apr-12 05:24N 29°55' E 122°45'1517.4
2014-Apr-12 04:33N 29°45' E 122°32'1110.6
2014-Apr-12 03:31N 29°42' E 122°20'0 0.1
2014-Apr-12 02:25N 29°42' E 122°20'0 0.1
2014-Apr-12 01:31N 29°42' E 122°20'0 0.0
2014-Apr-12 00:25N 29°42' E 122°20'0 0.0
2014-Apr-11 23:31N 29°42' E 122°20'0 0.0
2014-Apr-11 22:25N 29°42' E 122°20'0 0.0
2014-Apr-11 21:19N 29°42' E 122°20'0 0.2
2014-Apr-11 20:31N 29°42' E 122°20'0 0.1
2014-Apr-11 19:31N 29°42' E 122°20'0 0.1
2014-Apr-11 18:31N 29°42' E 122°20'0 0.0
2014-Apr-11 17:31N 29°42' E 122°20'0 0.0
2014-Apr-11 16:31N 29°42' E 122°20'0 0.2
2014-Apr-11 15:31N 29°42' E 122°20'0 0.1
2014-Apr-11 14:33N 29°42' E 122°20'0 0.1
2014-Apr-11 13:33N 29°42' E 122°20'0 0.3
2014-Apr-11 12:33N 29°42' E 122°20'5 5.0
2014-Apr-11 11:33N 29°46' E 122°17'7 6.7
2014-Apr-11 10:33N 29°51' E 122°12'8 7.4
2014-Apr-11 09:26N 29°53' E 122°03'0 0.1
2014-Apr-11 08:32N 29°53' E 122°03'0 0.0
2014-Apr-11 07:20N 29°53' E 122°03'0 0.0
2014-Apr-11 06:32N 29°53' E 122°03'0 0.0
2014-Apr-11 05:32N 29°53' E 122°03'0 0.0
2014-Apr-11 04:32N 29°53' E 122°03'0 0.0
2014-Apr-11 03:32N 29°53' E 122°03'0 0.0
2014-Apr-11 02:32N 29°53' E 122°03'0 0.1
2014-Apr-11 01:32N 29°53' E 122°03'0 0.1
2014-Apr-11 00:32N 29°53' E 122°03'0 0.0
2014-Apr-10 23:26N 29°53' E 122°03'0 0.1
2014-Apr-10 22:32N 29°53' E 122°03'0 0.0
2014-Apr-10 21:32N 29°53' E 122°03'0 0.0
2014-Apr-10 20:26N 29°53' E 122°03'0 0.1
2014-Apr-10 19:33N 29°54' E 122°03'6 5.7
2014-Apr-10 18:33N 29°56' E 122°09'1211.9
2014-Apr-10 17:33N 29°46' E 122°17'5 5.0
2014-Apr-10 16:29N 29°42' E 122°21'0 0.1
2014-Apr-10 15:29N 29°42' E 122°21'0 0.0
2014-Apr-10 14:29N 29°42' E 122°21'0 0.2
2014-Apr-10 13:30N 29°42' E 122°21'0 0.1
2014-Apr-10 12:33N 29°42' E 122°21'0 0.1
2014-Apr-10 11:33N 29°42' E 122°21'0 0.1
2014-Apr-10 10:34N 29°42' E 122°21'0 0.1
2014-Apr-10 09:33N 29°42' E 122°21'0 0.1
2014-Apr-10 08:33N 29°42' E 122°21'5 4.5
2014-Apr-10 07:33N 29°42' E 122°26'1212.1
2014-Apr-10 06:33N 29°31' E 122°32'1818.2
2014-Apr-10 05:34N 29°13' E 122°31'1818.1
2014-Apr-10 04:34N 28°55' E 122°32'1918.5
2014-Apr-10 03:32N 28°36' E 122°30'2418.8
2014-Apr-10 02:16N 28°12' E 122°29'1418.9
2014-Apr-10 01:30N 27°57' E 122°29'13018.6
2014-Apr-09 18:32N 26°09' E 121°09'9718.9
2014-Apr-09 13:23N 24°57' E 119°56'2418.9
2014-Apr-09 12:08N 24°40' E 119°37'1519.1
2014-Apr-09 11:21N 24°30' E 119°26'2318.6
2014-Apr-09 10:05N 24°14' E 119°06'3018.9
2014-Apr-09 08:31N 23°55' E 118°42'2519.1
2014-Apr-09 07:14N 23°37' E 118°23'1619.0
2014-Apr-09 06:24N 23°27' E 118°10'1818.9
2014-Apr-09 05:27N 23°19' E 117°53'3618.8
2014-Apr-09 03:32N 23°01' E 117°18'1918.9
2014-Apr-09 02:33N 22°52' E 117°01'16316.3
2014-Apr-08 16:32N 22°20' E 114°07'0 0.1
2014-Apr-08 15:22N 22°20' E 114°08'0 0.0
2014-Apr-08 08:28N 22°20' E 114°08'0 0.0
2014-Apr-08 07:28N 22°20' E 114°08'0 0.0
2014-Apr-08 06:22N 22°20' E 114°08'0 0.0
2014-Apr-08 05:28N 22°20' E 114°08'0 0.0
2014-Apr-08 04:04N 22°20' E 114°08'0 0.0
2014-Apr-07 21:33N 22°20' E 114°08'2 1.9
2014-Apr-07 20:33N 22°19' E 114°06'2 1.7
2014-Apr-07 19:28N 22°20' E 114°04'0 0.0
2014-Apr-07 17:22N 22°20' E 114°04'0 0.1
2014-Apr-07 16:28N 22°20' E 114°04'0 0.1
2014-Apr-07 15:22N 22°20' E 114°04'0 0.0
2014-Apr-07 14:22N 22°20' E 114°04'0 0.1
2014-Apr-07 12:28N 22°20' E 114°04'0 0.0
2014-Apr-07 11:28N 22°20' E 114°04'0 0.2
2014-Apr-07 10:10N 22°20' E 114°04'3 3.3
2014-Apr-07 09:24N 22°21' E 114°02'8 9.6
2014-Apr-07 08:33N 22°24' E 113°54'4 2.9
2014-Apr-07 07:20N 22°27' E 113°54'0 0.0
2014-Apr-07 06:32N 22°27' E 113°54'0 0.0
2014-Apr-07 05:32N 22°27' E 113°54'0 0.0
2014-Apr-07 04:26N 22°27' E 113°54'0 0.0
2014-Apr-07 03:32N 22°27' E 113°54'0 0.0
2014-Apr-07 02:32N 22°27' E 113°54'0 0.0
2014-Apr-07 01:32N 22°27' E 113°54'  

Dump ship's entire track history

sailing weather and tide predictions

Ever Unicorn — 9V7963 — position and weather